sensor_id;sensor_type;location;lat;lon;timestamp;pressure;altitude;pressure_sealevel;temperature;humidity
41202;BME280;26936;50.524;8.684;2022-09-09T00:03:43;98794.44;;;16.74;89.69
41202;BME280;26936;50.524;8.684;2022-09-09T00:06:31;98789.50;;;16.69;89.83
41202;BME280;26936;50.524;8.684;2022-09-09T00:09:08;98791.81;;;16.70;89.75
41202;BME280;26936;50.524;8.684;2022-09-09T00:11:54;98788.75;;;16.74;89.34
41202;BME280;26936;50.524;8.684;2022-09-09T00:14:39;98786.41;;;16.72;89.45
41202;BME280;26936;50.524;8.684;2022-09-09T00:20:21;98776.16;;;16.91;89.63
41202;BME280;26936;50.524;8.684;2022-09-09T00:23:11;98784.66;;;16.86;90.59
41202;BME280;26936;50.524;8.684;2022-09-09T00:25:45;98777.19;;;16.94;90.42
41202;BME280;26936;50.524;8.684;2022-09-09T00:28:24;98771.22;;;16.86;91.31
41202;BME280;26936;50.524;8.684;2022-09-09T00:30:50;98762.56;;;16.59;92.95
41202;BME280;26936;50.524;8.684;2022-09-09T00:33:20;98768.94;;;16.48;94.11
41202;BME280;26936;50.524;8.684;2022-09-09T00:35:52;98763.22;;;16.43;94.70
41202;BME280;26936;50.524;8.684;2022-09-09T00:38:38;98763.41;;;16.33;95.11
41202;BME280;26936;50.524;8.684;2022-09-09T00:43:39;98756.69;;;16.37;95.21
41202;BME280;26936;50.524;8.684;2022-09-09T00:46:34;98765.78;;;16.41;94.55
41202;BME280;26936;50.524;8.684;2022-09-09T00:57:14;98763.34;;;16.22;97.23
41202;BME280;26936;50.524;8.684;2022-09-09T00:59:51;98767.84;;;16.03;98.53
41202;BME280;26936;50.524;8.684;2022-09-09T01:02:39;98770.47;;;16.12;98.59
41202;BME280;26936;50.524;8.684;2022-09-09T01:05:15;98774.63;;;16.11;98.80
41202;BME280;26936;50.524;8.684;2022-09-09T01:07:47;98778.38;;;15.97;100.00
41202;BME280;26936;50.524;8.684;2022-09-09T01:10:48;98772.69;;;15.97;100.00
41202;BME280;26936;50.524;8.684;2022-09-09T01:13:21;98772.97;;;15.99;100.00
41202;BME280;26936;50.524;8.684;2022-09-09T01:15:48;98768.00;;;15.89;100.00
41202;BME280;26936;50.524;8.684;2022-09-09T01:18:17;98775.72;;;15.88;100.00
41202;BME280;26936;50.524;8.684;2022-09-09T01:24:03;98769.97;;;15.83;100.00
41202;BME280;26936;50.524;8.684;2022-09-09T01:26:39;98775.72;;;15.88;100.00
41202;BME280;26936;50.524;8.684;2022-09-09T01:29:11;98773.88;;;15.85;100.00
41202;BME280;26936;50.524;8.684;2022-09-09T01:31:51;98776.94;;;15.82;100.00
41202;BME280;26936;50.524;8.684;2022-09-09T01:34:17;98784.28;;;15.94;100.00
41202;BME280;26936;50.524;8.684;2022-09-09T01:39:17;98784.78;;;15.92;100.00
41202;BME280;26936;50.524;8.684;2022-09-09T01:41:42;98790.41;;;15.87;100.00
41202;BME280;26936;50.524;8.684;2022-09-09T01:44:09;98774.47;;;15.95;100.00
41202;BME280;26936;50.524;8.684;2022-09-09T01:46:35;98783.72;;;15.90;100.00
41202;BME280;26936;50.524;8.684;2022-09-09T01:49:02;98788.91;;;15.91;100.00
41202;BME280;26936;50.524;8.684;2022-09-09T01:51:29;98783.50;;;15.93;100.00
41202;BME280;26936;50.524;8.684;2022-09-09T01:53:54;98784.88;;;16.03;99.37
41202;BME280;26936;50.524;8.684;2022-09-09T01:56:45;98778.13;;;16.01;99.30
41202;BME280;26936;50.524;8.684;2022-09-09T01:59:28;98782.63;;;16.13;97.76
41202;BME280;26936;50.524;8.684;2022-09-09T02:02:12;98776.75;;;16.22;96.77
41202;BME280;26936;50.524;8.684;2022-09-09T02:04:47;98781.91;;;16.23;96.17
41202;BME280;26936;50.524;8.684;2022-09-09T02:07:38;98779.34;;;16.25;95.88
41202;BME280;26936;50.524;8.684;2022-09-09T02:10:17;98775.59;;;16.40;94.70
41202;BME280;26936;50.524;8.684;2022-09-09T02:12:47;98778.84;;;16.27;95.73
41202;BME280;26936;50.524;8.684;2022-09-09T02:15:26;98786.97;;;16.40;95.20
41202;BME280;26936;50.524;8.684;2022-09-09T02:17:55;98784.16;;;16.45;95.28
41202;BME280;26936;50.524;8.684;2022-09-09T02:20:23;98785.84;;;16.26;96.62
41202;BME280;26936;50.524;8.684;2022-09-09T02:22:53;98789.94;;;16.25;97.66
41202;BME280;26936;50.524;8.684;2022-09-09T02:25:21;98787.03;;;16.14;98.10
41202;BME280;26936;50.524;8.684;2022-09-09T02:27:49;98785.19;;;16.11;99.02
41202;BME280;26936;50.524;8.684;2022-09-09T02:30:15;98771.44;;;16.04;99.19
41202;BME280;26936;50.524;8.684;2022-09-09T02:32:42;98791.94;;;15.82;100.00
41202;BME280;26936;50.524;8.684;2022-09-09T02:35:19;98786.06;;;15.91;99.65
41202;BME280;26936;50.524;8.684;2022-09-09T02:37:46;98789.97;;;15.94;99.26
41202;BME280;26936;50.524;8.684;2022-09-09T02:40:13;98776.53;;;15.94;99.14
41202;BME280;26936;50.524;8.684;2022-09-09T02:42:41;98788.09;;;15.85;99.85
41202;BME280;26936;50.524;8.684;2022-09-09T02:45:08;98793.78;;;15.91;99.71
41202;BME280;26936;50.524;8.684;2022-09-09T02:48:03;98800.03;;;15.95;100.00
41202;BME280;26936;50.524;8.684;2022-09-09T02:50:49;98798.50;;;15.94;100.00
41202;BME280;26936;50.524;8.684;2022-09-09T02:53:23;98800.78;;;15.90;100.00
41202;BME280;26936;50.524;8.684;2022-09-09T02:56:04;98799.44;;;15.85;100.00
41202;BME280;26936;50.524;8.684;2022-09-09T02:58:31;98795.03;;;15.84;100.00
41202;BME280;26936;50.524;8.684;2022-09-09T03:00:57;98788.97;;;15.71;100.00
41202;BME280;26936;50.524;8.684;2022-09-09T03:03:23;98786.84;;;15.66;100.00
41202;BME280;26936;50.524;8.684;2022-09-09T03:05:49;98786.69;;;15.75;100.00
41202;BME280;26936;50.524;8.684;2022-09-09T03:08:14;98784.31;;;15.68;100.00
41202;BME280;26936;50.524;8.684;2022-09-09T03:10:40;98791.88;;;15.77;100.00
41202;BME280;26936;50.524;8.684;2022-09-09T03:13:05;98784.78;;;15.61;100.00
41202;BME280;26936;50.524;8.684;2022-09-09T03:15:33;98786.47;;;15.79;100.00
41202;BME280;26936;50.524;8.684;2022-09-09T03:17:59;98783.06;;;15.75;100.00
41202;BME280;26936;50.524;8.684;2022-09-09T03:20:25;98788.47;;;15.73;100.00
41202;BME280;26936;50.524;8.684;2022-09-09T03:22:54;98781.16;;;15.61;100.00
41202;BME280;26936;50.524;8.684;2022-09-09T03:25:20;98773.78;;;15.49;100.00
41202;BME280;26936;50.524;8.684;2022-09-09T03:27:46;98774.56;;;15.49;100.00
41202;BME280;26936;50.524;8.684;2022-09-09T03:30:11;98774.91;;;15.57;100.00
41202;BME280;26936;50.524;8.684;2022-09-09T03:32:36;98775.19;;;15.59;100.00
41202;BME280;26936;50.524;8.684;2022-09-09T03:35:02;98766.13;;;15.55;100.00
41202;BME280;26936;50.524;8.684;2022-09-09T03:37:28;98767.16;;;15.57;100.00
41202;BME280;26936;50.524;8.684;2022-09-09T03:39:53;98770.50;;;15.56;100.00
41202;BME280;26936;50.524;8.684;2022-09-09T03:42:21;98771.25;;;15.51;100.00
41202;BME280;26936;50.524;8.684;2022-09-09T03:44:47;98775.97;;;15.59;100.00
41202;BME280;26936;50.524;8.684;2022-09-09T03:47:16;98779.03;;;15.56;100.00
41202;BME280;26936;50.524;8.684;2022-09-09T03:49:42;98771.53;;;15.33;100.00
41202;BME280;26936;50.524;8.684;2022-09-09T03:52:08;98774.50;;;15.44;100.00
41202;BME280;26936;50.524;8.684;2022-09-09T03:54:33;98771.88;;;15.40;100.00
41202;BME280;26936;50.524;8.684;2022-09-09T03:56:59;98767.69;;;15.36;100.00
41202;BME280;26936;50.524;8.684;2022-09-09T03:59:24;98777.97;;;15.53;100.00
41202;BME280;26936;50.524;8.684;2022-09-09T04:01:50;98778.03;;;15.59;100.00
41202;BME280;26936;50.524;8.684;2022-09-09T04:04:16;98775.97;;;15.59;100.00
41202;BME280;26936;50.524;8.684;2022-09-09T04:06:41;98770.91;;;15.43;100.00
41202;BME280;26936;50.524;8.684;2022-09-09T04:09:06;98774.66;;;15.55;100.00
41202;BME280;26936;50.524;8.684;2022-09-09T04:11:32;98775.38;;;15.50;100.00
41202;BME280;26936;50.524;8.684;2022-09-09T04:13:57;98771.41;;;15.42;100.00
41202;BME280;26936;50.524;8.684;2022-09-09T04:16:22;98774.78;;;15.46;100.00
41202;BME280;26936;50.524;8.684;2022-09-09T04:18:47;98772.47;;;15.44;100.00
41202;BME280;26936;50.524;8.684;2022-09-09T04:21:13;98770.63;;;15.41;100.00
41202;BME280;26936;50.524;8.684;2022-09-09T04:23:39;98781.47;;;15.43;100.00
41202;BME280;26936;50.524;8.684;2022-09-09T04:26:05;98774.66;;;15.55;100.00
41202;BME280;26936;50.524;8.684;2022-09-09T04:28:32;98774.28;;;15.47;100.00
41202;BME280;26936;50.524;8.684;2022-09-09T04:31:15;98771.03;;;15.34;100.00
41202;BME280;26936;50.524;8.684;2022-09-09T04:33:40;98771.59;;;15.38;100.00
41202;BME280;26936;50.524;8.684;2022-09-09T04:36:06;98780.75;;;15.28;100.00
41202;BME280;26936;50.524;8.684;2022-09-09T04:38:32;98767.97;;;15.38;100.00
41202;BME280;26936;50.524;8.684;2022-09-09T04:40:57;98774.16;;;15.36;100.00
41202;BME280;26936;50.524;8.684;2022-09-09T04:43:22;98770.13;;;15.23;100.00
41202;BME280;26936;50.524;8.684;2022-09-09T04:45:49;98770.34;;;15.19;100.00
41202;BME280;26936;50.524;8.684;2022-09-09T04:48:15;98768.59;;;15.22;100.00
41202;BME280;26936;50.524;8.684;2022-09-09T04:50:40;98761.84;;;15.19;100.00
41202;BME280;26936;50.524;8.684;2022-09-09T04:53:06;98769.34;;;15.22;100.00
41202;BME280;26936;50.524;8.684;2022-09-09T04:55:32;98775.09;;;15.28;100.00
41202;BME280;26936;50.524;8.684;2022-09-09T04:58:06;98778.72;;;15.28;100.00
41202;BME280;26936;50.524;8.684;2022-09-09T05:00:34;98772.75;;;15.26;100.00
41202;BME280;26936;50.524;8.684;2022-09-09T05:03:05;98771.47;;;15.27;100.00
41202;BME280;26936;50.524;8.684;2022-09-09T05:05:32;98781.56;;;15.28;100.00
41202;BME280;26936;50.524;8.684;2022-09-09T05:08:07;98784.59;;;15.25;100.00
41202;BME280;26936;50.524;8.684;2022-09-09T05:10:34;98780.97;;;15.24;100.00
41202;BME280;26936;50.524;8.684;2022-09-09T05:13:01;98793.41;;;15.27;100.00
41202;BME280;26936;50.524;8.684;2022-09-09T05:15:26;98789.50;;;15.24;100.00
41202;BME280;26936;50.524;8.684;2022-09-09T05:17:52;98795.94;;;15.25;100.00
41202;BME280;26936;50.524;8.684;2022-09-09T05:20:20;98802.13;;;15.23;100.00
41202;BME280;26936;50.524;8.684;2022-09-09T05:22:45;98796.38;;;15.18;100.00
41202;BME280;26936;50.524;8.684;2022-09-09T05:25:10;98796.38;;;15.18;100.00
41202;BME280;26936;50.524;8.684;2022-09-09T05:27:36;98794.81;;;15.17;100.00
41202;BME280;26936;50.524;8.684;2022-09-09T05:30:01;98796.03;;;15.10;100.00
41202;BME280;26936;50.524;8.684;2022-09-09T05:32:26;98798.50;;;15.23;100.00
41202;BME280;26936;50.524;8.684;2022-09-09T05:34:52;98800.41;;;15.31;100.00
41202;BME280;26936;50.524;8.684;2022-09-09T05:37:18;98790.28;;;15.45;100.00
41202;BME280;26936;50.524;8.684;2022-09-09T05:39:43;98791.03;;;15.45;100.00
41202;BME280;26936;50.524;8.684;2022-09-09T05:42:09;98796.25;;;15.78;100.00
41202;BME280;26936;50.524;8.684;2022-09-09T05:44:34;98800.91;;;15.75;100.00
41202;BME280;26936;50.524;8.684;2022-09-09T05:46:59;98807.59;;;15.72;100.00
41202;BME280;26936;50.524;8.684;2022-09-09T05:49:25;98817.34;;;15.71;100.00
41202;BME280;26936;50.524;8.684;2022-09-09T05:51:50;98817.75;;;15.59;100.00
41202;BME280;26936;50.524;8.684;2022-09-09T05:54:16;98821.72;;;15.67;100.00
41202;BME280;26936;50.524;8.684;2022-09-09T05:56:41;98819.44;;;15.71;100.00
41202;BME280;26936;50.524;8.684;2022-09-09T05:59:07;98816.31;;;15.69;100.00
41202;BME280;26936;50.524;8.684;2022-09-09T06:01:35;98834.69;;;15.73;100.00
41202;BME280;26936;50.524;8.684;2022-09-09T06:04:00;98825.44;;;15.78;100.00
41202;BME280;26936;50.524;8.684;2022-09-09T06:06:30;98833.25;;;15.83;100.00
41202;BME280;26936;50.524;8.684;2022-09-09T06:08:57;98831.28;;;15.95;100.00
41202;BME280;26936;50.524;8.684;2022-09-09T06:11:30;98840.09;;;15.97;100.00
41202;BME280;26936;50.524;8.684;2022-09-09T06:13:56;98842.28;;;16.13;99.75
41202;BME280;26936;50.524;8.684;2022-09-09T06:16:23;98841.59;;;16.23;97.67
41202;BME280;26936;50.524;8.684;2022-09-09T06:18:49;98834.16;;;16.31;96.13
41202;BME280;26936;50.524;8.684;2022-09-09T06:21:20;98830.44;;;16.46;95.79
41202;BME280;26936;50.524;8.684;2022-09-09T06:23:46;98837.75;;;16.58;94.52
41202;BME280;26936;50.524;8.684;2022-09-09T06:26:18;98841.94;;;16.68;94.02
41202;BME280;26936;50.524;8.684;2022-09-09T06:28:48;98832.94;;;16.75;93.59
41202;BME280;26936;50.524;8.684;2022-09-09T06:31:16;98835.50;;;16.73;93.63
41202;BME280;26936;50.524;8.684;2022-09-09T06:33:42;98842.78;;;16.74;94.31
41202;BME280;26936;50.524;8.684;2022-09-09T06:36:15;98845.13;;;16.81;93.45
41202;BME280;26936;50.524;8.684;2022-09-09T06:38:41;98841.53;;;16.86;93.28
41202;BME280;26936;50.524;8.684;2022-09-09T06:41:08;98844.16;;;16.89;93.01
41202;BME280;26936;50.524;8.684;2022-09-09T06:43:34;98842.88;;;16.96;92.66
41202;BME280;26936;50.524;8.684;2022-09-09T06:46:02;98841.34;;;17.00;92.99
41202;BME280;26936;50.524;8.684;2022-09-09T06:48:28;98842.47;;;17.14;91.72
41202;BME280;26936;50.524;8.684;2022-09-09T06:51:11;98840.25;;;17.40;90.61
41202;BME280;26936;50.524;8.684;2022-09-09T06:53:38;98839.97;;;17.38;90.94
41202;BME280;26936;50.524;8.684;2022-09-09T06:58:36;98838.94;;;17.41;90.32
41202;BME280;26936;50.524;8.684;2022-09-09T07:01:03;98839.31;;;17.59;89.44
41202;BME280;26936;50.524;8.684;2022-09-09T07:03:29;98829.75;;;17.74;88.25
41202;BME280;26936;50.524;8.684;2022-09-09T07:05:55;98839.38;;;17.93;87.54
41202;BME280;26936;50.524;8.684;2022-09-09T07:08:24;98830.59;;;18.18;85.99
41202;BME280;26936;50.524;8.684;2022-09-09T07:10:53;98839.13;;;18.29;85.68
41202;BME280;26936;50.524;8.684;2022-09-09T07:13:25;98832.91;;;18.31;85.32
41202;BME280;26936;50.524;8.684;2022-09-09T07:15:51;98831.13;;;18.22;86.14
41202;BME280;26936;50.524;8.684;2022-09-09T07:18:17;98846.66;;;18.16;87.70
41202;BME280;26936;50.524;8.684;2022-09-09T07:20:43;98842.75;;;18.30;86.90
41202;BME280;26936;50.524;8.684;2022-09-09T07:23:08;98847.69;;;18.40;85.62
41202;BME280;26936;50.524;8.684;2022-09-09T07:25:33;98846.13;;;18.34;85.31
41202;BME280;26936;50.524;8.684;2022-09-09T07:27:58;98841.19;;;18.34;85.10
41202;BME280;26936;50.524;8.684;2022-09-09T07:30:24;98840.97;;;18.54;84.58
41202;BME280;26936;50.524;8.684;2022-09-09T07:32:51;98839.41;;;18.59;84.53
41202;BME280;26936;50.524;8.684;2022-09-09T07:35:16;98851.56;;;18.70;84.31
41202;BME280;26936;50.524;8.684;2022-09-09T07:37:41;98846.13;;;18.67;83.65
41202;BME280;26936;50.524;8.684;2022-09-09T07:40:07;98849.25;;;18.69;84.39
41202;BME280;26936;50.524;8.684;2022-09-09T07:42:32;98847.69;;;18.79;83.11
41202;BME280;26936;50.524;8.684;2022-09-09T07:44:58;98846.09;;;18.83;77.52
41202;BME280;26936;50.524;8.684;2022-09-09T07:47:24;98842.69;;;18.96;75.81
41202;BME280;26936;50.524;8.684;2022-09-09T07:49:50;98849.97;;;18.97;76.36
41202;BME280;26936;50.524;8.684;2022-09-09T07:52:15;98848.44;;;18.85;76.05
41202;BME280;26936;50.524;8.684;2022-09-09T07:54:41;98856.44;;;18.98;74.84
41202;BME280;26936;50.524;8.684;2022-09-09T07:57:07;98854.59;;;19.06;77.66
41202;BME280;26936;50.524;8.684;2022-09-09T07:59:32;98847.88;;;19.09;78.26
41202;BME280;26936;50.524;8.684;2022-09-09T08:01:57;98847.78;;;19.25;76.95
41202;BME280;26936;50.524;8.684;2022-09-09T08:06:54;98860.47;;;20.33;71.24
41202;BME280;26936;50.524;8.684;2022-09-09T08:09:20;98859.09;;;20.40;70.07
41202;BME280;26936;50.524;8.684;2022-09-09T08:11:46;98851.44;;;20.23;70.28
41202;BME280;26936;50.524;8.684;2022-09-09T08:14:12;98859.78;;;20.21;71.24
41202;BME280;26936;50.524;8.684;2022-09-09T08:16:41;98855.19;;;20.02;71.76
41202;BME280;26936;50.524;8.684;2022-09-09T08:19:07;98867.38;;;20.08;70.96
41202;BME280;26936;50.524;8.684;2022-09-09T08:21:33;98865.28;;;20.08;71.18
41202;BME280;26936;50.524;8.684;2022-09-09T08:24:01;98859.03;;;20.15;71.32
41202;BME280;26936;50.524;8.684;2022-09-09T08:26:29;98866.16;;;20.92;68.68
41202;BME280;26936;50.524;8.684;2022-09-09T08:28:56;98875.09;;;21.37;65.50
41202;BME280;26936;50.524;8.684;2022-09-09T08:31:30;98879.31;;;21.73;60.32
41202;BME280;26936;50.524;8.684;2022-09-09T08:33:57;98879.19;;;21.41;61.45
41202;BME280;26936;50.524;8.684;2022-09-09T08:36:28;98881.16;;;21.28;62.65
41202;BME280;26936;50.524;8.684;2022-09-09T08:38:56;98888.34;;;21.16;63.16
41202;BME280;26936;50.524;8.684;2022-09-09T08:41:27;98874.91;;;21.05;63.34
41202;BME280;26936;50.524;8.684;2022-09-09T08:44:04;98881.56;;;20.89;63.48
41202;BME280;26936;50.524;8.684;2022-09-09T08:46:39;98884.13;;;20.93;62.81
41202;BME280;26936;50.524;8.684;2022-09-09T08:51:48;98882.47;;;23.46;54.60
41202;BME280;26936;50.524;8.684;2022-09-09T08:54:14;98873.09;;;22.75;55.37
41202;BME280;26936;50.524;8.684;2022-09-09T08:56:40;98882.81;;;22.22;56.67
41202;BME280;26936;50.524;8.684;2022-09-09T08:59:07;98883.06;;;21.44;58.12
41202;BME280;26936;50.524;8.684;2022-09-09T09:04:54;98885.81;;;21.74;59.31
41202;BME280;26936;50.524;8.684;2022-09-09T09:07:51;98890.94;;;22.18;57.48
41202;BME280;26936;50.524;8.684;2022-09-09T09:10:33;98879.19;;;22.84;54.66
41202;BME280;26936;50.524;8.684;2022-09-09T09:13:01;98887.44;;;22.75;55.27
41202;BME280;26936;50.524;8.684;2022-09-09T09:15:33;98873.38;;;22.58;55.00
41202;BME280;26936;50.524;8.684;2022-09-09T09:18:02;98873.53;;;22.66;54.35
41202;BME280;26936;50.524;8.684;2022-09-09T09:20:42;98864.63;;;23.74;52.32
41202;BME280;26936;50.524;8.684;2022-09-09T09:23:17;98856.13;;;23.81;52.02
41202;BME280;26936;50.524;8.684;2022-09-09T09:25:45;98860.72;;;23.51;52.78
41202;BME280;26936;50.524;8.684;2022-09-09T09:28:17;98857.66;;;22.91;53.02
41202;BME280;26936;50.524;8.684;2022-09-09T09:33:29;98852.63;;;22.02;55.43
41202;BME280;26936;50.524;8.684;2022-09-09T09:35:56;98852.19;;;22.61;54.65
41202;BME280;26936;50.524;8.684;2022-09-09T09:38:24;98844.03;;;22.65;54.16
41202;BME280;26936;50.524;8.684;2022-09-09T09:40:58;98862.69;;;22.09;55.68
41202;BME280;26936;50.524;8.684;2022-09-09T09:43:26;98870.38;;;22.01;57.68
41202;BME280;26936;50.524;8.684;2022-09-09T09:45:52;98865.75;;;21.55;59.98
41202;BME280;26936;50.524;8.684;2022-09-09T09:48:18;98863.84;;;21.82;60.39
41202;BME280;26936;50.524;8.684;2022-09-09T09:50:55;98860.06;;;22.74;58.44
41202;BME280;26936;50.524;8.684;2022-09-09T09:53:32;98848.56;;;22.61;57.92
41202;BME280;26936;50.524;8.684;2022-09-09T09:56:14;98852.19;;;23.45;55.30
41202;BME280;26936;50.524;8.684;2022-09-09T10:01:26;98854.38;;;23.65;54.69
41202;BME280;26936;50.524;8.684;2022-09-09T10:03:54;98857.31;;;23.86;53.58
41202;BME280;26936;50.524;8.684;2022-09-09T10:06:32;98844.69;;;24.36;52.53
41202;BME280;26936;50.524;8.684;2022-09-09T10:08:58;98861.44;;;24.24;51.72
41202;BME280;26936;50.524;8.684;2022-09-09T10:11:35;98858.84;;;24.34;50.98
41202;BME280;26936;50.524;8.684;2022-09-09T10:14:20;98845.66;;;23.32;53.61
41202;BME280;26936;50.524;8.684;2022-09-09T10:17:14;98851.44;;;22.61;55.95
41202;BME280;26936;50.524;8.684;2022-09-09T10:22:28;98843.13;;;21.70;59.06
41202;BME280;26936;50.524;8.684;2022-09-09T10:30:55;98832.75;;;22.54;56.53
41202;BME280;26936;50.524;8.684;2022-09-09T10:33:34;98846.72;;;22.45;56.52
41202;BME280;26936;50.524;8.684;2022-09-09T10:36:23;98854.47;;;22.00;56.90
41202;BME280;26936;50.524;8.684;2022-09-09T10:38:58;98826.56;;;22.00;57.27
41202;BME280;26936;50.524;8.684;2022-09-09T10:41:42;98832.72;;;23.12;54.05
41202;BME280;26936;50.524;8.684;2022-09-09T10:44:25;98841.50;;;22.75;51.54
41202;BME280;26936;50.524;8.684;2022-09-09T10:47:17;98838.00;;;22.50;52.23
41202;BME280;26936;50.524;8.684;2022-09-09T10:52:37;98841.50;;;22.12;53.53
41202;BME280;26936;50.524;8.684;2022-09-09T10:55:13;98854.22;;;21.98;54.20
41202;BME280;26936;50.524;8.684;2022-09-09T10:57:43;98855.38;;;21.71;58.14
41202;BME280;26936;50.524;8.684;2022-09-09T11:02:48;98878.84;;;21.02;60.30
41202;BME280;26936;50.524;8.684;2022-09-09T11:05:22;98872.69;;;20.93;65.21
41202;BME280;26936;50.524;8.684;2022-09-09T11:07:56;98869.19;;;20.76;66.82
41202;BME280;26936;50.524;8.684;2022-09-09T11:10:38;98858.38;;;20.93;65.95
41202;BME280;26936;50.524;8.684;2022-09-09T11:13:11;98856.19;;;20.75;66.36
41202;BME280;26936;50.524;8.684;2022-09-09T11:15:48;98857.78;;;21.00;65.31
41202;BME280;26936;50.524;8.684;2022-09-09T11:18:20;98849.16;;;21.05;66.24
41202;BME280;26936;50.524;8.684;2022-09-09T11:20:50;98838.72;;;21.69;65.79
41202;BME280;26936;50.524;8.684;2022-09-09T11:23:22;98839.66;;;22.77;62.09
41202;BME280;26936;50.524;8.684;2022-09-09T11:25:55;98846.66;;;23.60;57.73
41202;BME280;26936;50.524;8.684;2022-09-09T11:33:58;98827.44;;;23.42;55.89
41202;BME280;26936;50.524;8.684;2022-09-09T11:39:02;98837.50;;;23.49;55.08
41202;BME280;26936;50.524;8.684;2022-09-09T11:41:36;98830.41;;;23.37;55.71
41202;BME280;26936;50.524;8.684;2022-09-09T11:44:11;98835.06;;;23.27;55.69
41202;BME280;26936;50.524;8.684;2022-09-09T11:46:39;98835.38;;;22.97;54.94
41202;BME280;26936;50.524;8.684;2022-09-09T11:49:26;98842.38;;;22.70;53.89
41202;BME280;26936;50.524;8.684;2022-09-09T11:51:51;98842.91;;;22.37;55.24
41202;BME280;26936;50.524;8.684;2022-09-09T11:54:31;98835.47;;;22.15;56.94
41202;BME280;26936;50.524;8.684;2022-09-09T11:56:57;98842.75;;;21.98;57.21
41202;BME280;26936;50.524;8.684;2022-09-09T11:59:25;98840.84;;;21.87;57.65
41202;BME280;26936;50.524;8.684;2022-09-09T12:01:59;98834.47;;;21.76;57.74
41202;BME280;26936;50.524;8.684;2022-09-09T12:05:14;98840.16;;;21.81;60.46
41202;BME280;26936;50.524;8.684;2022-09-09T12:07:30;98840.09;;;22.18;60.29
41202;BME280;26936;50.524;8.684;2022-09-09T12:10:01;98836.56;;;21.94;64.17
41202;BME280;26936;50.524;8.684;2022-09-09T12:12:34;98841.78;;;21.34;65.80
41202;BME280;26936;50.524;8.684;2022-09-09T12:17:36;98847.50;;;20.86;62.30
41202;BME280;26936;50.524;8.684;2022-09-09T12:25:20;98846.59;;;20.43;67.57
41202;BME280;26936;50.524;8.684;2022-09-09T12:30:37;98847.00;;;20.58;66.24
41202;BME280;26936;50.524;8.684;2022-09-09T12:33:11;98842.09;;;20.53;65.36
41202;BME280;26936;50.524;8.684;2022-09-09T12:35:38;98842.06;;;20.82;62.26
41202;BME280;26936;50.524;8.684;2022-09-09T12:38:05;98840.91;;;21.20;61.85
41202;BME280;26936;50.524;8.684;2022-09-09T12:40:34;98843.09;;;21.33;59.79
41202;BME280;26936;50.524;8.684;2022-09-09T12:43:17;98836.03;;;21.15;60.27
41202;BME280;26936;50.524;8.684;2022-09-09T12:45:42;98836.22;;;20.93;60.74
41202;BME280;26936;50.524;8.684;2022-09-09T12:48:09;98836.47;;;20.95;60.96
41202;BME280;26936;50.524;8.684;2022-09-09T12:50:46;98817.41;;;21.03;60.24
41202;BME280;26936;50.524;8.684;2022-09-09T12:53:16;98827.47;;;21.10;59.55
41202;BME280;26936;50.524;8.684;2022-09-09T12:55:51;98818.78;;;20.97;60.22
41202;BME280;26936;50.524;8.684;2022-09-09T12:58:18;98823.63;;;21.07;59.15
41202;BME280;26936;50.524;8.684;2022-09-09T13:00:50;98818.91;;;21.10;58.71
41202;BME280;26936;50.524;8.684;2022-09-09T13:03:18;98828.56;;;21.07;59.57
41202;BME280;26936;50.524;8.684;2022-09-09T13:05:45;98825.53;;;20.99;59.56
41202;BME280;26936;50.524;8.684;2022-09-09T13:08:13;98807.69;;;20.88;60.60
41202;BME280;26936;50.524;8.684;2022-09-09T13:11:12;98805.47;;;20.75;60.08
41202;BME280;26936;50.524;8.684;2022-09-09T13:13:38;98817.25;;;20.66;58.80
41202;BME280;26936;50.524;8.684;2022-09-09T13:16:06;98818.63;;;20.60;59.67
41202;BME280;26936;50.524;8.684;2022-09-09T13:18:37;98820.50;;;20.28;61.45
41202;BME280;26936;50.524;8.684;2022-09-09T13:21:05;98814.63;;;20.09;63.33
41202;BME280;26936;50.524;8.684;2022-09-09T13:23:33;98813.63;;;20.06;64.41
41202;BME280;26936;50.524;8.684;2022-09-09T13:26:03;98814.47;;;19.90;64.79
41202;BME280;26936;50.524;8.684;2022-09-09T13:28:29;98819.44;;;19.90;65.70
41202;BME280;26936;50.524;8.684;2022-09-09T13:31:03;98823.31;;;19.92;65.39
41202;BME280;26936;50.524;8.684;2022-09-09T13:33:37;98812.31;;;20.02;66.98
41202;BME280;26936;50.524;8.684;2022-09-09T13:36:05;98807.38;;;20.02;67.27
41202;BME280;26936;50.524;8.684;2022-09-09T13:38:35;98804.72;;;20.15;66.89
41202;BME280;26936;50.524;8.684;2022-09-09T13:41:04;98801.53;;;20.25;67.27
41202;BME280;26936;50.524;8.684;2022-09-09T13:43:38;98805.66;;;20.29;67.14
41202;BME280;26936;50.524;8.684;2022-09-09T13:46:38;98803.75;;;20.37;66.02
41202;BME280;26936;50.524;8.684;2022-09-09T13:51:40;98787.03;;;20.71;65.84
41202;BME280;26936;50.524;8.684;2022-09-09T13:54:09;98787.47;;;21.04;62.81
41202;BME280;26936;50.524;8.684;2022-09-09T13:56:37;98787.50;;;21.23;57.50
41202;BME280;26936;50.524;8.684;2022-09-09T13:59:05;98781.81;;;21.60;59.44
41202;BME280;26936;50.524;8.684;2022-09-09T14:01:30;98783.66;;;21.58;60.91
41202;BME280;26936;50.524;8.684;2022-09-09T14:03:56;98782.78;;;21.63;60.18
41202;BME280;26936;50.524;8.684;2022-09-09T14:06:22;98773.88;;;21.85;59.70
41202;BME280;26936;50.524;8.684;2022-09-09T14:08:49;98776.19;;;22.05;58.02
41202;BME280;26936;50.524;8.684;2022-09-09T14:11:15;98770.81;;;22.14;57.49
41202;BME280;26936;50.524;8.684;2022-09-09T14:13:41;98767.31;;;22.21;56.87
41202;BME280;26936;50.524;8.684;2022-09-09T14:16:06;98772.50;;;22.23;57.49
41202;BME280;26936;50.524;8.684;2022-09-09T14:18:31;98771.94;;;22.24;56.57
41202;BME280;26936;50.524;8.684;2022-09-09T14:20:57;98772.09;;;22.32;55.62
41202;BME280;26936;50.524;8.684;2022-09-09T14:23:24;98767.66;;;22.31;54.74
41202;BME280;26936;50.524;8.684;2022-09-09T14:25:49;98780.50;;;22.43;54.04
41202;BME280;26936;50.524;8.684;2022-09-09T14:28:14;98772.75;;;22.38;51.02